createdAt,value
2022-11-01T00:03:52.652Z,12.67
2022-11-01T00:08:54.628Z,12.72
2022-11-01T00:13:56.210Z,12.76
2022-11-01T00:18:57.777Z,12.78
2022-11-01T00:23:59.270Z,12.82
2022-11-01T00:29:00.817Z,12.86
2022-11-01T00:34:05.632Z,12.87
2022-11-01T00:39:07.758Z,12.83
2022-11-01T00:44:09.203Z,12.84
2022-11-01T00:49:10.690Z,12.83
2022-11-01T00:54:12.167Z,12.82
2022-11-01T00:59:13.670Z,12.86
2022-11-01T01:04:15.168Z,12.90
2022-11-01T01:09:16.619Z,12.91
2022-11-01T01:14:18.079Z,12.94
2022-11-01T01:19:19.956Z,12.99
2022-11-01T01:24:21.744Z,13.07
2022-11-01T01:29:23.346Z,13.11
2022-11-01T01:34:24.787Z,13.15
2022-11-01T01:39:26.286Z,13.19
2022-11-01T01:44:56.727Z,13.26
2022-11-01T01:50:07.488Z,13.32
2022-11-01T01:55:11.132Z,13.46
2022-11-01T02:00:13.277Z,13.46
2022-11-01T02:05:35.329Z,13.50
2022-11-01T02:10:37.387Z,13.30
2022-11-01T02:15:50.276Z,13.34
2022-11-01T02:21:16.054Z,13.49
2022-11-01T02:26:36.886Z,13.57
2022-11-01T02:31:59.762Z,13.66
2022-11-01T02:37:37.142Z,13.77
2022-11-01T02:42:46.601Z,13.62
2022-11-01T02:47:48.065Z,13.54
2022-11-01T02:52:49.768Z,13.57
2022-11-01T02:57:51.217Z,13.54
2022-11-01T03:03:01.109Z,13.59
2022-11-01T03:08:07.450Z,13.74
2022-11-01T03:13:32.605Z,13.80
2022-11-01T03:18:39.142Z,13.77
2022-11-01T03:23:47.111Z,13.71
2022-11-01T03:28:56.940Z,13.69
2022-11-01T03:34:03.059Z,13.75
2022-11-01T03:39:15.203Z,13.76
2022-11-01T03:44:17.386Z,13.78
2022-11-01T03:49:19.596Z,13.81
2022-11-01T03:54:21.360Z,13.86
2022-11-01T03:59:26.096Z,13.88
2022-11-01T04:04:27.529Z,13.92
2022-11-01T04:09:28.986Z,13.97
2022-11-01T04:14:49.250Z,14.03
2022-11-01T04:20:09.144Z,14.02
2022-11-01T04:25:10.633Z,13.92
2022-11-01T04:30:12.392Z,13.88
2022-11-01T04:35:13.985Z,13.78
2022-11-01T04:40:15.552Z,13.72
2022-11-01T04:45:17.082Z,13.77
2022-11-01T04:50:20.312Z,13.83
2022-11-01T04:55:21.770Z,13.89
2022-11-01T05:00:23.637Z,13.94
2022-11-01T05:05:25.092Z,14.00
2022-11-01T05:10:26.592Z,14.04
2022-11-01T05:15:28.167Z,14.11
2022-11-01T05:20:30.721Z,14.09
2022-11-01T05:25:37.023Z,14.11
2022-11-01T05:30:40.531Z,14.14
2022-11-01T05:35:41.972Z,14.14
2022-11-01T05:40:43.505Z,14.15
2022-11-01T05:45:44.952Z,14.15
2022-11-01T05:50:47.100Z,14.22
2022-11-01T05:55:48.661Z,14.27
2022-11-01T06:00:50.178Z,14.35
2022-11-01T06:05:51.678Z,14.45
2022-11-01T06:11:00.288Z,14.47
2022-11-01T06:16:04.463Z,14.56
2022-11-01T06:21:06.095Z,14.71
2022-11-01T06:26:07.652Z,14.86
2022-11-01T06:31:09.115Z,14.99
2022-11-01T06:36:10.596Z,15.08
2022-11-01T06:41:12.057Z,15.16
2022-11-01T06:46:13.612Z,15.23
2022-11-01T06:51:15.159Z,15.32
2022-11-01T06:56:16.664Z,15.43
2022-11-01T07:01:19.195Z,15.53
2022-11-01T07:06:21.954Z,15.57
2022-11-01T07:11:27.419Z,15.60
2022-11-01T07:16:32.672Z,15.62
2022-11-01T07:21:34.152Z,15.68
2022-11-01T07:26:35.598Z,15.80
2022-11-01T07:31:38.917Z,15.91
2022-11-01T07:36:40.388Z,16.03
2022-11-01T07:41:42.044Z,16.17
2022-11-01T07:46:43.518Z,16.26
2022-11-01T07:51:45.021Z,16.34
2022-11-01T07:56:47.873Z,16.40
2022-11-01T08:01:49.460Z,16.48
2022-11-01T08:06:52.256Z,16.67
2022-11-01T08:11:54.000Z,16.84
2022-11-01T08:17:01.907Z,17.03
2022-11-01T08:22:03.457Z,17.21
2022-11-01T08:27:04.921Z,17.37
2022-11-01T08:32:06.392Z,17.53
2022-11-01T08:37:07.869Z,17.72
2022-11-01T08:42:09.686Z,17.84
2022-11-01T08:47:11.657Z,18.03
2022-11-01T08:52:13.279Z,18.23
2022-11-01T08:57:16.076Z,18.43
2022-11-01T09:02:17.855Z,18.58
2022-11-01T09:07:20.338Z,18.89
2022-11-01T09:12:24.807Z,19.01
2022-11-01T09:17:26.553Z,18.99
2022-11-01T09:22:28.962Z,19.00
2022-11-01T09:27:30.794Z,19.00
2022-11-01T09:32:32.369Z,18.99
2022-11-01T09:37:34.036Z,19.01
2022-11-01T09:42:40.206Z,19.24
2022-11-01T09:47:46.106Z,19.52
2022-11-01T09:52:49.169Z,19.63
2022-11-01T09:58:30.196Z,19.38
2022-11-01T10:03:54.255Z,18.55
2022-11-01T10:09:22.125Z,18.01
2022-11-01T10:15:00.523Z,17.93
2022-11-01T10:20:04.303Z,17.85
2022-11-01T10:25:26.297Z,17.77
2022-11-01T10:30:31.444Z,17.92
2022-11-01T10:35:41.607Z,17.92
2022-11-01T10:41:29.280Z,17.91
2022-11-01T10:46:43.958Z,17.85
2022-11-01T10:51:48.244Z,17.64
2022-11-01T10:56:53.503Z,17.44
2022-11-01T11:01:56.043Z,17.18
2022-11-01T11:06:57.759Z,17.30
2022-11-01T11:12:05.123Z,17.49
2022-11-01T11:17:26.040Z,17.93
2022-11-01T11:22:27.731Z,18.27
2022-11-01T11:27:32.882Z,18.10
2022-11-01T11:32:38.825Z,18.25
2022-11-01T11:37:49.711Z,18.38
2022-11-01T11:43:15.000Z,18.33
2022-11-01T11:48:21.926Z,18.38
2022-11-01T11:53:24.510Z,18.36
2022-11-01T11:58:41.310Z,18.41
2022-11-01T12:04:05.992Z,18.65
2022-11-01T12:09:34.670Z,18.60
2022-11-01T12:14:38.783Z,18.50
2022-11-01T12:19:40.245Z,18.42
2022-11-01T12:24:50.747Z,18.49
2022-11-01T12:30:00.938Z,18.63
2022-11-01T12:35:07.143Z,18.52
2022-11-01T12:40:19.012Z,18.56
2022-11-01T12:46:09.554Z,18.24
2022-11-01T12:51:10.931Z,18.03
2022-11-01T12:56:13.137Z,18.08
2022-11-01T13:01:53.692Z,18.08
2022-11-01T13:07:14.016Z,18.09
2022-11-01T13:12:49.085Z,17.81
2022-11-01T13:18:08.947Z,17.80
2022-11-01T13:23:34.201Z,18.09
2022-11-01T13:28:41.392Z,18.09
2022-11-01T13:34:08.352Z,17.93
2022-11-01T13:39:38.073Z,17.71
2022-11-01T13:44:48.783Z,17.75
2022-11-01T13:50:24.124Z,17.85
2022-11-01T13:55:34.838Z,17.97
2022-11-01T14:00:45.812Z,17.83
2022-11-01T14:06:11.705Z,17.75
2022-11-01T14:11:34.392Z,17.65
2022-11-01T14:16:35.890Z,17.55
2022-11-01T14:21:46.778Z,17.48
2022-11-01T14:27:19.036Z,17.55
2022-11-01T14:32:23.876Z,17.64
2022-11-01T14:37:29.061Z,17.65
2022-11-01T14:42:39.001Z,17.62
2022-11-01T14:47:41.149Z,17.60
2022-11-01T14:52:49.253Z,17.58
2022-11-01T14:57:50.956Z,17.46
2022-11-01T15:02:52.828Z,17.30
2022-11-01T15:07:59.190Z,17.19
2022-11-01T15:13:02.350Z,17.11
2022-11-01T15:18:06.380Z,17.00
2022-11-01T15:23:11.608Z,16.88
2022-11-01T15:28:22.552Z,16.74
2022-11-01T15:33:31.568Z,16.64
2022-11-01T15:38:35.742Z,16.50
2022-11-01T15:43:37.362Z,16.36
2022-11-01T15:48:39.140Z,16.22
2022-11-01T15:53:43.043Z,16.06
2022-11-01T15:58:54.244Z,15.89
2022-11-01T16:04:09.960Z,15.73
2022-11-01T16:09:18.606Z,15.56
2022-11-01T16:14:37.122Z,15.38
2022-11-01T16:19:48.441Z,15.19
2022-11-01T16:24:50.179Z,15.04
2022-11-01T16:29:52.868Z,14.90
2022-11-01T16:35:00.183Z,14.77
2022-11-01T16:40:22.496Z,14.58
2022-11-01T16:45:23.995Z,14.44
2022-11-01T16:50:25.522Z,14.28
2022-11-01T16:55:28.531Z,14.11
2022-11-01T17:00:31.644Z,13.97
2022-11-01T17:05:33.191Z,13.84
2022-11-01T17:10:34.646Z,13.71
2022-11-01T17:15:41.759Z,13.58
2022-11-01T17:20:44.642Z,13.43
2022-11-01T17:25:51.283Z,13.32
2022-11-01T17:30:53.384Z,13.28
2022-11-01T17:35:54.886Z,13.37
2022-11-01T17:40:56.931Z,13.35
2022-11-01T17:45:59.810Z,13.08
2022-11-01T17:51:01.886Z,12.73
2022-11-01T17:56:03.579Z,12.56
2022-11-01T18:01:05.412Z,12.49
2022-11-01T18:06:07.122Z,12.44
2022-11-01T18:11:11.217Z,12.39
2022-11-01T18:16:34.098Z,12.35
2022-11-01T18:21:45.383Z,12.35
2022-11-01T18:26:46.914Z,12.42
2022-11-01T18:32:16.888Z,12.44
2022-11-01T18:37:39.231Z,12.41
2022-11-01T18:42:42.131Z,12.37
2022-11-01T18:47:53.301Z,12.31
2022-11-01T18:53:10.549Z,12.29
2022-11-01T18:58:21.130Z,12.24
2022-11-01T19:03:25.324Z,12.23
2022-11-01T19:08:27.280Z,12.21
2022-11-01T19:13:34.032Z,12.15
2022-11-01T19:18:40.706Z,12.03
2022-11-01T19:23:54.876Z,11.95
2022-11-01T19:28:57.648Z,11.94
2022-11-01T19:34:03.092Z,11.96
2022-11-01T19:39:21.008Z,11.83
2022-11-01T19:44:24.557Z,11.78
2022-11-01T19:49:30.121Z,11.67
2022-11-01T19:54:36.226Z,11.52
2022-11-01T19:59:37.726Z,11.33
2022-11-01T20:04:39.178Z,11.14
2022-11-01T20:09:40.975Z,10.99
2022-11-01T20:14:42.454Z,10.89
2022-11-01T20:19:45.172Z,10.95
2022-11-01T20:24:47.169Z,10.90
2022-11-01T20:29:48.806Z,10.84
2022-11-01T20:34:50.629Z,10.70
2022-11-01T20:39:52.055Z,10.55
2022-11-01T20:44:53.556Z,10.41
2022-11-01T20:49:55.066Z,10.27
2022-11-01T20:54:57.722Z,10.16
2022-11-01T20:59:59.336Z,10.08
2022-11-01T21:05:14.375Z,9.99
2022-11-01T21:10:35.657Z,9.87
2022-11-01T21:15:39.430Z,9.77
2022-11-01T21:20:44.630Z,9.70
2022-11-01T21:25:46.861Z,9.63
2022-11-01T21:30:48.442Z,9.60
2022-11-01T21:35:53.079Z,9.61
2022-11-01T21:40:54.554Z,9.60
2022-11-01T21:45:56.172Z,9.55
2022-11-01T21:50:57.794Z,9.50
2022-11-01T21:55:59.251Z,9.42
2022-11-01T22:01:00.809Z,9.33
2022-11-01T22:06:02.314Z,9.24
2022-11-01T22:11:03.830Z,9.13
2022-11-01T22:16:05.736Z,9.07
2022-11-01T22:21:07.215Z,9.03
2022-11-01T22:26:08.730Z,8.97
2022-11-01T22:31:10.472Z,8.95
2022-11-01T22:36:21.150Z,8.92
2022-11-01T22:41:22.625Z,8.84
2022-11-01T22:46:53.582Z,8.80
2022-11-01T22:52:24.466Z,8.82
2022-11-01T22:57:31.935Z,9.09
2022-11-01T23:02:37.483Z,9.48
2022-11-01T23:07:47.726Z,9.90
2022-11-01T23:13:10.869Z,10.25
2022-11-01T23:18:16.214Z,10.39
2022-11-01T23:23:21.053Z,10.47
2022-11-01T23:28:23.469Z,10.67
2022-11-01T23:33:32.468Z,10.93
2022-11-01T23:38:45.892Z,11.05
2022-11-01T23:43:47.884Z,11.17
2022-11-01T23:48:50.152Z,11.20
2022-11-01T23:53:54.127Z,11.24
2022-11-01T23:59:00.633Z,11.31
